Time;durP1;ratioP1;P1;durP2;ratioP2;P2;SDS_P1;SDS_P2;PMS_P1;PMS_P2;Temp;Humidity;BMP_temperature;BMP_pressure;BME280_temperature;BME280_humidity;BME280_pressure;Samples;Min_cycle;Max_cycle;Signal;HPM_P1;HPM_P2
2021/05/30 00:04:04;;;;;;;14.15;5.40;;;11.10;59.90;;;;;;4958753;29;20070;-88
2021/05/30 00:09:54;;;;;;;9.85;5.20;;;11.00;60.30;;;;;;4958587;29;20039;-88
2021/05/30 00:15:43;;;;;;;10.60;5.07;;;11.00;60.60;;;;;;4958557;29;20515;-88
2021/05/30 00:21:32;;;;;;;9.18;4.53;;;11.00;60.90;;;;;;4958606;29;20151;-88
2021/05/30 00:27:22;;;;;;;9.82;4.60;;;10.90;60.80;;;;;;4958366;29;20379;-86
2021/05/30 00:33:11;;;;;;;11.43;5.20;;;10.80;61.00;;;;;;4959704;29;20046;-87
2021/05/30 00:38:59;;;;;;;9.50;4.90;;;10.70;60.90;;;;;;4958253;29;20053;-87
2021/05/30 00:44:48;;;;;;;10.15;5.13;;;10.60;61.10;;;;;;4958807;29;20034;-87
2021/05/30 00:50:37;;;;;;;10.00;5.18;;;10.40;61.30;;;;;;4958085;29;20435;-87
2021/05/30 00:56:28;;;;;;;9.10;4.78;;;10.20;61.30;;;;;;4957995;29;20042;-88
2021/05/30 01:02:18;;;;;;;10.02;4.70;;;10.10;61.60;;;;;;4958148;29;20110;-88
2021/05/30 01:08:06;;;;;;;8.75;4.30;;;9.90;61.60;;;;;;4957859;29;20050;-88
2021/05/30 01:13:56;;;;;;;9.25;4.75;;;9.80;61.80;;;;;;4957600;29;20054;-88
2021/05/30 01:23:55;;;;;;;9.73;4.82;;;9.60;62.10;;;;;;4957579;29;20483;-87
2021/05/30 01:29:43;;;;;;;9.55;4.82;;;9.60;62.40;;;;;;4957238;29;20507;-87
2021/05/30 01:35:33;;;;;;;11.48;5.10;;;9.50;62.50;;;;;;4957090;29;20392;-87
2021/05/30 01:41:21;;;;;;;9.68;5.10;;;9.40;62.50;;;;;;4957225;29;20038;-87
2021/05/30 01:47:10;;;;;;;9.88;4.97;;;9.30;62.70;;;;;;4956646;28;20058;-87
2021/05/30 01:53:06;;;;;;;9.18;4.68;;;9.20;62.90;;;;;;4956681;29;20387;-88
2021/05/30 01:58:54;;;;;;;9.73;5.22;;;9.00;62.90;;;;;;4957156;29;20158;-88
2021/05/30 02:04:44;;;;;;;12.15;5.22;;;8.90;63.10;;;;;;4956830;29;20134;-88
2021/05/30 02:10:32;;;;;;;11.85;5.25;;;8.90;63.50;;;;;;4956827;29;20503;-88
2021/05/30 02:16:22;;;;;;;10.93;5.00;;;8.90;63.60;;;;;;4956370;29;20046;-88
2021/05/30 02:26:15;;;;;;;10.75;5.75;;;8.70;63.50;;;;;;4956279;29;20120;-89
2021/05/30 02:32:06;;;;;;;12.10;6.05;;;8.60;63.70;;;;;;4955998;29;20167;-89
2021/05/30 02:37:57;;;;;;;11.77;5.15;;;8.50;63.80;;;;;;4956188;29;20030;-88
2021/05/30 02:43:48;;;;;;;10.82;5.82;;;8.40;63.90;;;;;;4955899;29;20042;-88
2021/05/30 02:49:37;;;;;;;10.95;5.60;;;8.40;64.00;;;;;;4955820;29;20547;-88
2021/05/30 02:55:58;;;;;;;14.40;5.90;;;8.30;64.00;;;;;;4956202;29;20046;-90
2021/05/30 03:01:53;;;;;;;9.40;4.72;;;8.20;64.40;;;;;;4956430;29;20042;-89
2021/05/30 03:07:44;;;;;;;10.27;5.35;;;8.10;64.40;;;;;;4956166;29;20034;-89
2021/05/30 03:13:39;;;;;;;11.73;6.00;;;8.10;64.60;;;;;;4956097;29;20062;-88
2021/05/30 03:19:28;;;;;;;10.88;5.13;;;8.10;64.70;;;;;;4955693;29;20042;-89
2021/05/30 03:29:19;;;;;;;13.93;5.75;;;8.00;64.90;;;;;;4955949;29;20038;-89
2021/05/30 03:35:09;;;;;;;11.70;5.57;;;7.90;64.90;;;;;;4955579;29;20058;-89
2021/05/30 03:41:06;;;;;;;11.60;6.03;;;7.90;65.50;;;;;;4955344;29;20042;-89
2021/05/30 03:46:55;;;;;;;11.82;6.13;;;7.90;65.40;;;;;;4955334;29;20054;-89
2021/05/30 03:52:48;;;;;;;11.05;5.70;;;7.90;65.50;;;;;;4955427;29;20094;-88
2021/05/30 03:58:47;;;;;;;12.30;6.20;;;7.90;65.80;;;;;;4955835;29;20123;-88
2021/05/30 04:04:44;;;;;;;11.35;5.95;;;8.00;66.00;;;;;;4955110;29;20119;-89
2021/05/30 04:10:33;;;;;;;11.20;5.18;;;8.00;66.80;;;;;;4956463;28;20058;-89
2021/05/30 04:16:36;;;;;;;15.38;7.82;;;8.10;66.30;;;;;;4958552;29;20058;-89
2021/05/30 04:22:26;;;;;;;13.02;6.75;;;8.20;66.50;;;;;;4958629;29;20035;-91
2021/05/30 04:32:15;;;;;;;12.23;5.93;;;8.20;66.60;;;;;;4958447;29;20098;-89
2021/05/30 04:38:04;;;;;;;11.68;6.30;;;8.40;67.00;;;;;;4958602;29;20117;-89
2021/05/30 04:43:52;;;;;;;12.20;6.57;;;8.50;67.20;;;;;;4958445;29;20034;-90
2021/05/30 04:49:41;;;;;;;13.10;6.82;;;8.60;67.00;;;;;;4957954;29;20444;-88
2021/05/30 04:55:30;;;;;;;12.77;7.00;;;8.70;67.40;;;;;;4957994;29;20525;-88
2021/05/30 05:01:19;;;;;;;21.42;13.23;;;8.90;67.50;;;;;;4958119;29;20038;-87
2021/05/30 05:07:19;;;;;;;12.95;7.20;;;9.00;67.60;;;;;;4957532;29;20503;-88
2021/05/30 05:13:20;;;;;;;14.50;7.70;;;9.20;67.90;;;;;;4957866;29;20037;-92
2021/05/30 05:19:09;;;;;;;15.52;8.52;;;9.30;67.80;;;;;;4958092;29;20054;-88
2021/05/30 05:25:00;;;;;;;18.08;9.18;;;9.30;67.90;;;;;;4958892;29;20387;-87
2021/05/30 05:34:52;;;;;;;13.68;7.45;;;9.60;68.10;;;;;;4957774;29;20054;-86
2021/05/30 05:40:40;;;;;;;13.30;7.85;;;9.80;68.50;;;;;;4957480;29;20380;-84
2021/05/30 05:46:29;;;;;;;17.30;9.90;;;10.00;68.70;;;;;;4957239;29;20039;-83
2021/05/30 05:52:19;;;;;;;15.32;8.63;;;10.20;68.80;;;;;;4956872;29;20496;-84
2021/05/30 05:58:08;;;;;;;18.58;8.85;;;10.40;68.80;;;;;;4957010;29;20069;-85
2021/05/30 06:03:56;;;;;;;15.23;8.23;;;10.60;69.00;;;;;;4956888;29;20042;-85
2021/05/30 06:09:46;;;;;;;15.50;8.45;;;10.80;69.20;;;;;;4956367;29;20390;-84
2021/05/30 06:15:35;;;;;;;17.15;9.20;;;11.00;69.20;;;;;;4956390;29;20498;-85
2021/05/30 06:21:26;;;;;;;16.33;9.43;;;11.10;69.20;;;;;;4956256;29;20395;-85
2021/05/30 06:27:16;;;;;;;17.58;9.10;;;11.30;69.50;;;;;;4956160;29;20435;-85
2021/05/30 06:37:06;;;;;;;16.38;7.43;;;11.70;69.70;;;;;;4956253;29;20112;-85
2021/05/30 06:42:54;;;;;;;13.85;7.70;;;11.80;69.70;;;;;;4955890;29;20506;-86
2021/05/30 07:33:04;;;;;;;10.55;5.00;;;13.80;69.40;;;;;;4956047;29;20116;-86
2021/05/30 17:02:50;;;;;;;4.15;1.80;;;37.00;16.60;;;;;;4952737;29;20053;-92
2021/05/30 17:08:39;;;;;;;2.38;1.83;;;35.90;16.40;;;;;;4958371;29;20039;-92
2021/05/30 17:21:02;;;;;;;4.65;1.90;;;34.10;16.90;;;;;;4958603;29;20034;-92
2021/05/30 17:27:14;;;;;;;4.85;1.90;;;33.20;16.80;;;;;;4957900;29;20042;-91
2021/05/30 17:33:12;;;;;;;2.17;1.75;;;32.50;17.20;;;;;;4958326;29;20050;-91
2021/05/30 17:45:56;;;;;;;5.00;2.00;;;31.00;17.10;;;;;;4913772;28;20045;-89
2021/05/30 17:51:47;;;;;;;4.57;1.75;;;29.70;17.20;;;;;;4957968;29;20034;-90
2021/05/30 17:57:36;;;;;;;3.63;1.88;;;27.90;17.10;;;;;;4957846;29;20539;-89
2021/05/30 18:03:24;;;;;;;5.00;2.10;;;26.40;17.30;;;;;;4958644;28;20046;-90
2021/05/30 18:09:13;;;;;;;2.90;1.73;;;25.30;17.70;;;;;;4957201;29;20082;-88
2021/05/30 18:15:01;;;;;;;6.53;2.10;;;24.50;17.90;;;;;;4957662;29;20043;-87
2021/05/30 18:20:52;;;;;;;4.72;2.00;;;23.50;18.30;;;;;;4957626;29;20030;-86
2021/05/30 18:26:40;;;;;;;5.32;1.98;;;22.80;18.80;;;;;;4956944;29;20413;-86
2021/05/30 18:32:29;;;;;;;5.82;2.20;;;22.00;19.00;;;;;;4957521;29;20431;-86
2021/05/30 18:38:17;;;;;;;3.85;2.10;;;21.30;19.60;;;;;;4956482;29;20082;-87
2021/05/30 18:44:08;;;;;;;4.72;2.00;;;20.70;19.60;;;;;;4956045;29;20034;-85
2021/05/30 18:49:56;;;;;;;3.78;2.05;;;20.30;19.80;;;;;;4956252;29;20030;-86
2021/05/30 18:55:44;;;;;;;6.95;2.20;;;19.80;19.80;;;;;;4956057;29;20073;-86
2021/05/30 19:01:33;;;;;;;4.68;2.08;;;19.40;19.90;;;;;;4955770;29;20034;-85
2021/05/30 19:11:22;;;;;;;6.13;2.35;;;18.80;20.00;;;;;;4955986;29;20050;-85
2021/05/30 19:17:11;;;;;;;4.05;2.08;;;18.40;20.30;;;;;;4955747;29;20592;-87
2021/05/30 19:23:01;;;;;;;5.00;2.35;;;18.10;20.40;;;;;;4955408;29;20379;-87
2021/05/30 19:28:49;;;;;;;6.07;2.28;;;17.80;20.50;;;;;;4955666;29;20035;-87
2021/05/30 19:34:38;;;;;;;7.65;2.40;;;17.50;20.70;;;;;;4955268;29;20038;-87
2021/05/30 19:40:28;;;;;;;6.28;2.30;;;17.20;20.80;;;;;;4955946;28;20399;-93
2021/05/30 19:46:18;;;;;;;4.45;2.13;;;17.00;21.00;;;;;;4960329;29;20030;-92
2021/05/30 19:52:08;;;;;;;4.40;2.20;;;16.80;21.10;;;;;;4960212;29;20085;-92
2021/05/30 19:57:57;;;;;;;5.55;2.30;;;16.40;21.10;;;;;;4959933;29;20507;-92
2021/05/30 20:03:57;;;;;;;11.60;5.05;;;16.10;21.20;;;;;;4959189;29;20074;-89
2021/05/30 20:13:46;;;;;;;7.63;2.90;;;15.60;21.20;;;;;;4959319;29;20097;-90
2021/05/30 20:19:35;;;;;;;6.75;2.67;;;15.40;21.50;;;;;;4958947;29;20038;-90
2021/05/30 20:31:22;;;;;;;8.80;2.67;;;14.90;21.70;;;;;;4959044;29;20066;-90
2021/05/30 20:37:22;;;;;;;5.50;2.40;;;14.60;21.90;;;;;;4958677;29;20082;-93
2021/05/30 20:47:02;;;;;;;8.82;3.00;;;14.40;22.10;;;;;;5188900;23;20063;-90
2021/05/30 20:53:25;;;;;;;5.50;2.65;;;14.10;22.20;;;;;;4958400;28;20078;-91
